sensor_id;sensor_type;location;lat;lon;timestamp;pressure;altitude;pressure_sealevel;temperature;humidity
54122;BME280;40029;58.708;50.190;2023-03-14T00:02:24;99694.91;;;-1.33;37.39
54122;BME280;40029;58.708;50.190;2023-03-14T00:04:55;99693.22;;;-1.35;37.52
54122;BME280;40029;58.708;50.190;2023-03-14T00:07:45;99681.22;;;-1.42;37.27
54122;BME280;40029;58.708;50.190;2023-03-14T00:10:36;99654.66;;;-1.61;37.28
54122;BME280;40029;58.708;50.190;2023-03-14T00:13:26;99652.84;;;-1.73;38.11
54122;BME280;40029;58.708;50.190;2023-03-14T00:16:16;99692.25;;;-1.45;37.38
54122;BME280;40029;58.708;50.190;2023-03-14T00:19:05;99711.88;;;-1.44;37.68
54122;BME280;40029;58.708;50.190;2023-03-14T00:21:55;99708.38;;;-1.52;37.38
54122;BME280;40029;58.708;50.190;2023-03-14T00:24:44;99718.56;;;-1.55;37.92
54122;BME280;40029;58.708;50.190;2023-03-14T00:27:34;99683.34;;;-1.85;38.34
54122;BME280;40029;58.708;50.190;2023-03-14T00:30:24;99672.19;;;-1.95;38.42
54122;BME280;40029;58.708;50.190;2023-03-14T00:33:13;99699.53;;;-1.83;38.14
54122;BME280;40029;58.708;50.190;2023-03-14T00:36:07;99696.13;;;-1.84;37.86
54122;BME280;40029;58.708;50.190;2023-03-14T00:39:00;99700.28;;;-1.93;38.12
54122;BME280;40029;58.708;50.190;2023-03-14T00:41:50;99687.44;;;-2.01;37.91
54122;BME280;40029;58.708;50.190;2023-03-14T00:44:40;99701.09;;;-1.99;38.64
54122;BME280;40029;58.708;50.190;2023-03-14T00:47:30;99701.09;;;-1.99;38.47
54122;BME280;40029;58.708;50.190;2023-03-14T00:50:20;99705.19;;;-2.10;38.34
54122;BME280;40029;58.708;50.190;2023-03-14T00:53:28;99699.94;;;-2.21;38.79
54122;BME280;40029;58.708;50.190;2023-03-14T00:56:02;99750.47;;;-1.95;39.05
54122;BME280;40029;58.708;50.190;2023-03-14T00:58:34;99704.19;;;-2.24;39.08
54122;BME280;40029;58.708;50.190;2023-03-14T01:01:14;99758.25;;;-1.86;38.87
54122;BME280;40029;58.708;50.190;2023-03-14T01:03:46;99759.88;;;-1.91;39.08
54122;BME280;40029;58.708;50.190;2023-03-14T01:06:38;99720.25;;;-2.30;39.18
54122;BME280;40029;58.708;50.190;2023-03-14T01:09:10;99764.06;;;-1.99;39.61
54122;BME280;40029;58.708;50.190;2023-03-14T01:11:41;99733.78;;;-2.37;39.42
54122;BME280;40029;58.708;50.190;2023-03-14T01:14:13;99746.63;;;-2.31;40.28
54122;BME280;40029;58.708;50.190;2023-03-14T01:16:44;99735.38;;;-2.45;40.25
54122;BME280;40029;58.708;50.190;2023-03-14T01:19:34;99741.41;;;-2.39;39.92
54122;BME280;40029;58.708;50.190;2023-03-14T01:22:05;99781.72;;;-2.13;39.54
54122;BME280;40029;58.708;50.190;2023-03-14T01:24:37;99757.66;;;-2.31;39.74
54122;BME280;40029;58.708;50.190;2023-03-14T01:27:08;99753.41;;;-2.32;40.32
54122;BME280;40029;58.708;50.190;2023-03-14T01:29:39;99799.63;;;-2.10;40.51
54122;BME280;40029;58.708;50.190;2023-03-14T01:32:10;99759.97;;;-2.50;40.77
54122;BME280;40029;58.708;50.190;2023-03-14T01:34:41;99773.63;;;-2.45;40.90
54122;BME280;40029;58.708;50.190;2023-03-14T01:37:31;99764.25;;;-2.48;40.24
54122;BME280;40029;58.708;50.190;2023-03-14T01:40:08;99771.69;;;-2.63;41.41
54122;BME280;40029;58.708;50.190;2023-03-14T01:42:53;99830.09;;;-2.22;41.03
54122;BME280;40029;58.708;50.190;2023-03-14T01:48:14;99801.63;;;-2.50;40.63
54122;BME280;40029;58.708;50.190;2023-03-14T01:50:46;99848.63;;;-2.34;41.25
54122;BME280;40029;58.708;50.190;2023-03-14T01:53:18;99806.56;;;-2.61;40.82
54122;BME280;40029;58.708;50.190;2023-03-14T01:55:52;99852.88;;;-2.35;41.08
54122;BME280;40029;58.708;50.190;2023-03-14T01:58:28;99859.59;;;-2.40;41.58
54122;BME280;40029;58.708;50.190;2023-03-14T02:01:24;99799.56;;;-2.74;41.79
54122;BME280;40029;58.708;50.190;2023-03-14T02:04:00;99818.44;;;-2.63;41.57
54122;BME280;40029;58.708;50.190;2023-03-14T02:06:53;99874.06;;;-2.39;41.95
54122;BME280;40029;58.708;50.190;2023-03-14T02:09:30;99838.84;;;-2.63;41.86
54122;BME280;40029;58.708;50.190;2023-03-14T02:12:02;99879.16;;;-2.42;41.90
54122;BME280;40029;58.708;50.190;2023-03-14T02:14:53;99778.75;;;-2.98;41.54
54122;BME280;40029;58.708;50.190;2023-03-14T02:17:31;99826.81;;;-2.71;41.68
54122;BME280;40029;58.708;50.190;2023-03-14T02:23:01;99890.09;;;-2.47;42.17
54122;BME280;40029;58.708;50.190;2023-03-14T02:25:46;99828.31;;;-2.81;43.07
54122;BME280;40029;58.708;50.190;2023-03-14T02:28:20;99880.75;;;-2.47;42.24
54122;BME280;40029;58.708;50.190;2023-03-14T02:30:53;99898.66;;;-2.45;42.49
54122;BME280;40029;58.708;50.190;2023-03-14T02:33:26;99848.78;;;-2.80;42.74
54122;BME280;40029;58.708;50.190;2023-03-14T02:36:04;99862.47;;;-2.73;42.57
54122;BME280;40029;58.708;50.190;2023-03-14T02:39:08;99841.63;;;-2.97;43.49
54122;BME280;40029;58.708;50.190;2023-03-14T02:41:45;99899.88;;;-2.72;42.81
54122;BME280;40029;58.708;50.190;2023-03-14T02:44:21;99861.38;;;-2.89;43.21
54122;BME280;40029;58.708;50.190;2023-03-14T02:46:53;99913.59;;;-2.67;43.54
54122;BME280;40029;58.708;50.190;2023-03-14T02:49:25;99920.47;;;-2.61;43.51
54122;BME280;40029;58.708;50.190;2023-03-14T02:51:58;99916.16;;;-2.64;43.26
54122;BME280;40029;58.708;50.190;2023-03-14T02:54:29;99862.16;;;-2.91;43.03
54122;BME280;40029;58.708;50.190;2023-03-14T02:57:03;99894.69;;;-2.77;43.33
54122;BME280;40029;58.708;50.190;2023-03-14T02:59:52;99881.69;;;-2.92;43.40
54122;BME280;40029;58.708;50.190;2023-03-14T03:02:24;99897.13;;;-2.84;43.37
54122;BME280;40029;58.708;50.190;2023-03-14T03:04:56;99932.47;;;-2.56;43.47
54122;BME280;40029;58.708;50.190;2023-03-14T03:07:27;99897.00;;;-2.92;43.75
54122;BME280;40029;58.708;50.190;2023-03-14T03:10:01;99900.50;;;-2.85;43.33
54122;BME280;40029;58.708;50.190;2023-03-14T03:12:33;99901.31;;;-2.88;43.41
54122;BME280;40029;58.708;50.190;2023-03-14T03:15:05;99916.06;;;-2.71;43.53
54122;BME280;40029;58.708;50.190;2023-03-14T03:17:39;99958.84;;;-2.55;44.20
54122;BME280;40029;58.708;50.190;2023-03-14T03:20:10;99950.03;;;-2.72;43.49
54122;BME280;40029;58.708;50.190;2023-03-14T03:22:43;99915.75;;;-2.88;43.59
54122;BME280;40029;58.708;50.190;2023-03-14T03:25:32;99974.91;;;-2.59;44.08
54122;BME280;40029;58.708;50.190;2023-03-14T03:28:07;99954.56;;;-2.58;43.23
54122;BME280;40029;58.708;50.190;2023-03-14T03:30:41;99940.56;;;-2.78;44.04
54122;BME280;40029;58.708;50.190;2023-03-14T03:33:32;99918.31;;;-2.88;43.68
54122;BME280;40029;58.708;50.190;2023-03-14T03:36:03;99936.28;;;-2.81;43.36
54122;BME280;40029;58.708;50.190;2023-03-14T03:38:38;99986.84;;;-2.58;44.13
54122;BME280;40029;58.708;50.190;2023-03-14T03:41:10;99904.28;;;-3.10;44.05
54122;BME280;40029;58.708;50.190;2023-03-14T03:43:59;99944.91;;;-2.72;44.00
54122;BME280;40029;58.708;50.190;2023-03-14T03:46:31;99978.59;;;-2.43;43.58
54122;BME280;40029;58.708;50.190;2023-03-14T03:49:03;99964.63;;;-2.64;44.03
54122;BME280;40029;58.708;50.190;2023-03-14T03:51:34;99902.03;;;-2.93;43.79
54122;BME280;40029;58.708;50.190;2023-03-14T03:54:06;100010.25;;;-2.34;43.91
54122;BME280;40029;58.708;50.190;2023-03-14T03:56:38;99906.28;;;-2.94;44.07
54122;BME280;40029;58.708;50.190;2023-03-14T03:59:10;99976.75;;;-2.52;44.10
54122;BME280;40029;58.708;50.190;2023-03-14T04:01:42;100021.38;;;-2.30;43.98
54122;BME280;40029;58.708;50.190;2023-03-14T04:04:13;99959.75;;;-2.52;44.00
54122;BME280;40029;58.708;50.190;2023-03-14T04:06:44;100016.47;;;-2.18;43.79
54122;BME280;40029;58.708;50.190;2023-03-14T04:09:34;99993.91;;;-2.45;43.73
54122;BME280;40029;58.708;50.190;2023-03-14T04:12:13;100027.75;;;-2.05;43.90
54122;BME280;40029;58.708;50.190;2023-03-14T04:14:58;100041.38;;;-2.06;43.62
54122;BME280;40029;58.708;50.190;2023-03-14T04:17:30;100020.72;;;-2.18;43.69
54122;BME280;40029;58.708;50.190;2023-03-14T04:20:01;100007.72;;;-2.32;43.98
54122;BME280;40029;58.708;50.190;2023-03-14T04:22:39;99953.78;;;-2.52;43.64
54122;BME280;40029;58.708;50.190;2023-03-14T04:25:10;100027.91;;;-1.96;43.30
54122;BME280;40029;58.708;50.190;2023-03-14T04:27:47;100052.09;;;-1.76;43.55
54122;BME280;40029;58.708;50.190;2023-03-14T04:30:37;99976.47;;;-2.20;43.32
54122;BME280;40029;58.708;50.190;2023-03-14T04:33:15;100072.78;;;-1.60;43.03
54122;BME280;40029;58.708;50.190;2023-03-14T04:35:54;100001.22;;;-2.16;43.53
54122;BME280;40029;58.708;50.190;2023-03-14T04:38:25;100022.81;;;-1.96;43.47
54122;BME280;40029;58.708;50.190;2023-03-14T04:40:57;100065.16;;;-1.57;42.88
54122;BME280;40029;58.708;50.190;2023-03-14T04:43:34;100068.47;;;-1.64;43.11
54122;BME280;40029;58.708;50.190;2023-03-14T04:46:19;100047.03;;;-1.74;42.68
54122;BME280;40029;58.708;50.190;2023-03-14T04:48:50;100085.84;;;-1.42;43.01
54122;BME280;40029;58.708;50.190;2023-03-14T04:51:23;100082.59;;;-1.32;42.29
54122;BME280;40029;58.708;50.190;2023-03-14T04:53:57;100089.44;;;-1.29;42.19
54122;BME280;40029;58.708;50.190;2023-03-14T04:56:29;100041.34;;;-1.55;42.71
54122;BME280;40029;58.708;50.190;2023-03-14T04:59:00;100041.41;;;-1.52;42.46
54122;BME280;40029;58.708;50.190;2023-03-14T05:01:32;100077.38;;;-1.38;42.16
54122;BME280;40029;58.708;50.190;2023-03-14T05:04:21;100103.50;;;-0.99;41.95
54122;BME280;40029;58.708;50.190;2023-03-14T05:07:19;100064.00;;;-1.21;42.10
54122;BME280;40029;58.708;50.190;2023-03-14T05:09:59;100117.53;;;-0.71;41.91
54122;BME280;40029;58.708;50.190;2023-03-14T05:12:48;100120.91;;;-0.72;41.43
54122;BME280;40029;58.708;50.190;2023-03-14T05:16:03;100075.53;;;-0.86;41.42
54122;BME280;40029;58.708;50.190;2023-03-14T05:18:53;100129.00;;;-0.42;41.21
54122;BME280;40029;58.708;50.190;2023-03-14T05:21:37;100123.03;;;-0.39;41.06
54122;BME280;40029;58.708;50.190;2023-03-14T05:24:34;100123.31;;;-0.16;40.38
54122;BME280;40029;58.708;50.190;2023-03-14T05:27:21;100094.81;;;-0.44;40.23
54122;BME280;40029;58.708;50.190;2023-03-14T05:30:11;100124.94;;;-0.24;39.87
54122;BME280;40029;58.708;50.190;2023-03-14T05:33:01;100141.44;;;0.02;40.27
54122;BME280;40029;58.708;50.190;2023-03-14T05:36:05;100058.16;;;-0.43;39.52
54122;BME280;40029;58.708;50.190;2023-03-14T05:38:56;100097.66;;;-0.19;39.82
54122;BME280;40029;58.708;50.190;2023-03-14T05:41:47;100157.63;;;-0.02;39.92
54122;BME280;40029;58.708;50.190;2023-03-14T05:44:25;100108.72;;;-0.22;40.14
54122;BME280;40029;58.708;50.190;2023-03-14T05:47:09;100095.91;;;-0.25;40.17
54122;BME280;40029;58.708;50.190;2023-03-14T05:50:01;100159.31;;;-0.03;40.22
54122;BME280;40029;58.708;50.190;2023-03-14T05:52:51;100113.50;;;-0.51;40.52
54122;BME280;40029;58.708;50.190;2023-03-14T05:55:40;100105.34;;;-0.19;39.81
54122;BME280;40029;58.708;50.190;2023-03-14T05:58:30;100163.88;;;0.24;39.23
54122;BME280;40029;58.708;50.190;2023-03-14T06:01:20;100127.56;;;-0.18;40.24
54122;BME280;40029;58.708;50.190;2023-03-14T06:04:08;100083.88;;;-0.32;39.52
54122;BME280;40029;58.708;50.190;2023-03-14T06:06:39;100120.91;;;-0.04;39.67
54122;BME280;40029;58.708;50.190;2023-03-14T06:09:12;100170.47;;;0.01;39.94
54122;BME280;40029;58.708;50.190;2023-03-14T06:11:46;100134.38;;;-0.19;39.14
54122;BME280;40029;58.708;50.190;2023-03-14T06:14:18;100129.88;;;-0.40;39.76
54122;BME280;40029;58.708;50.190;2023-03-14T06:16:51;100178.16;;;0.01;39.37
54122;BME280;40029;58.708;50.190;2023-03-14T06:19:25;100184.34;;;0.21;39.78
54122;BME280;40029;58.708;50.190;2023-03-14T06:22:15;100190.41;;;0.30;39.65
54122;BME280;40029;58.708;50.190;2023-03-14T06:24:46;100175.69;;;0.10;39.14
54122;BME280;40029;58.708;50.190;2023-03-14T06:27:19;100137.66;;;-0.31;38.99
54122;BME280;40029;58.708;50.190;2023-03-14T06:29:51;100200.34;;;0.01;40.07
54122;BME280;40029;58.708;50.190;2023-03-14T06:32:22;100198.53;;;-0.08;39.70
54122;BME280;40029;58.708;50.190;2023-03-14T06:34:56;100199.34;;;-0.12;40.48
54122;BME280;40029;58.708;50.190;2023-03-14T06:37:32;100202.81;;;-0.06;40.02
54122;BME280;40029;58.708;50.190;2023-03-14T06:40:22;100122.81;;;-0.59;39.68
54122;BME280;40029;58.708;50.190;2023-03-14T06:43:01;100205.22;;;-0.19;40.12
54122;BME280;40029;58.708;50.190;2023-03-14T06:45:34;100196.72;;;-0.17;39.64
54122;BME280;40029;58.708;50.190;2023-03-14T06:48:07;100151.88;;;-0.54;40.00
54122;BME280;40029;58.708;50.190;2023-03-14T06:50:50;100162.34;;;-0.34;40.08
54122;BME280;40029;58.708;50.190;2023-03-14T06:53:22;100205.53;;;0.07;40.22
54122;BME280;40029;58.708;50.190;2023-03-14T06:55:53;100201.16;;;-0.04;39.75
54122;BME280;40029;58.708;50.190;2023-03-14T06:58:24;100196.03;;;-0.04;39.69
54122;BME280;40029;58.708;50.190;2023-03-14T07:00:56;100199.78;;;0.28;39.66
54122;BME280;40029;58.708;50.190;2023-03-14T07:03:31;100213.59;;;0.40;39.35
54122;BME280;40029;58.708;50.190;2023-03-14T07:06:04;100163.00;;;0.22;39.01
54122;BME280;40029;58.708;50.190;2023-03-14T07:08:37;100183.81;;;0.53;38.22
54122;BME280;40029;58.708;50.190;2023-03-14T07:11:28;100179.31;;;0.32;38.88
54122;BME280;40029;58.708;50.190;2023-03-14T07:14:00;100212.13;;;0.64;38.56
54122;BME280;40029;58.708;50.190;2023-03-14T07:16:31;100204.44;;;0.64;37.87
54122;BME280;40029;58.708;50.190;2023-03-14T07:19:03;100204.47;;;0.68;38.42
54122;BME280;40029;58.708;50.190;2023-03-14T07:21:36;100227.59;;;0.73;37.77
54122;BME280;40029;58.708;50.190;2023-03-14T07:24:11;100226.84;;;0.86;37.99
54122;BME280;40029;58.708;50.190;2023-03-14T07:26:43;100195.97;;;0.75;38.20
54122;BME280;40029;58.708;50.190;2023-03-14T07:29:15;100165.06;;;0.63;37.06
54122;BME280;40029;58.708;50.190;2023-03-14T07:31:47;100172.94;;;0.85;37.36
54122;BME280;40029;58.708;50.190;2023-03-14T07:34:22;100169.75;;;1.12;37.10
54122;BME280;40029;58.708;50.190;2023-03-14T07:36:54;100181.72;;;1.14;36.62
54122;BME280;40029;58.708;50.190;2023-03-14T07:39:25;100217.94;;;1.54;37.02
54122;BME280;40029;58.708;50.190;2023-03-14T07:42:10;100161.25;;;1.25;36.10
54122;BME280;40029;58.708;50.190;2023-03-14T07:45:00;100231.66;;;1.59;35.70
54122;BME280;40029;58.708;50.190;2023-03-14T07:47:31;100204.13;;;1.37;35.91
54122;BME280;40029;58.708;50.190;2023-03-14T07:50:04;100173.31;;;1.32;35.75
54122;BME280;40029;58.708;50.190;2023-03-14T07:52:55;100191.25;;;1.28;36.15
54122;BME280;40029;58.708;50.190;2023-03-14T07:55:26;100226.59;;;1.71;36.29
54122;BME280;40029;58.708;50.190;2023-03-14T07:57:57;100223.97;;;1.62;36.01
54122;BME280;40029;58.708;50.190;2023-03-14T08:00:28;100190.47;;;1.44;34.94
54122;BME280;40029;58.708;50.190;2023-03-14T08:02:59;100237.84;;;1.96;35.61
54122;BME280;40029;58.708;50.190;2023-03-14T08:05:30;100189.78;;;1.77;35.25
54122;BME280;40029;58.708;50.190;2023-03-14T08:08:02;100236.19;;;2.14;34.84
54122;BME280;40029;58.708;50.190;2023-03-14T08:10:33;100202.72;;;2.00;34.37
54122;BME280;40029;58.708;50.190;2023-03-14T08:13:04;100240.53;;;2.25;34.58
54122;BME280;40029;58.708;50.190;2023-03-14T08:15:36;100235.38;;;2.32;34.19
54122;BME280;40029;58.708;50.190;2023-03-14T08:18:07;100241.41;;;2.46;33.40
54122;BME280;40029;58.708;50.190;2023-03-14T08:20:57;100235.44;;;2.47;33.03
54122;BME280;40029;58.708;50.190;2023-03-14T08:23:28;100194.25;;;2.32;33.43
54122;BME280;40029;58.708;50.190;2023-03-14T08:26:18;100187.34;;;2.09;32.17
54122;BME280;40029;58.708;50.190;2023-03-14T08:28:49;100200.25;;;2.35;32.59
54122;BME280;40029;58.708;50.190;2023-03-14T08:31:20;100179.72;;;2.38;33.11
54122;BME280;40029;58.708;50.190;2023-03-14T08:33:52;100234.63;;;2.80;32.19
54122;BME280;40029;58.708;50.190;2023-03-14T08:36:23;100242.38;;;2.85;31.69
54122;BME280;40029;58.708;50.190;2023-03-14T08:38:54;100176.25;;;2.33;31.57
54122;BME280;40029;58.708;50.190;2023-03-14T08:41:26;100172.81;;;2.42;31.27
54122;BME280;40029;58.708;50.190;2023-03-14T08:43:57;100234.63;;;2.92;31.64
54122;BME280;40029;58.708;50.190;2023-03-14T08:46:28;100142.84;;;2.53;30.95
54122;BME280;40029;58.708;50.190;2023-03-14T08:48:59;100181.44;;;2.62;29.89
54122;BME280;40029;58.708;50.190;2023-03-14T08:51:30;100224.34;;;3.11;30.51
54122;BME280;40029;58.708;50.190;2023-03-14T08:54:01;100218.31;;;3.01;28.83
54122;BME280;40029;58.708;50.190;2023-03-14T08:56:32;100167.72;;;3.03;30.68
54122;BME280;40029;58.708;50.190;2023-03-14T08:59:03;100171.13;;;3.00;29.34
54122;BME280;40029;58.708;50.190;2023-03-14T09:01:35;100140.25;;;2.96;28.91
54122;BME280;40029;58.708;50.190;2023-03-14T09:04:06;100226.00;;;3.47;29.25
54122;BME280;40029;58.708;50.190;2023-03-14T09:06:56;100230.31;;;3.39;28.44
54122;BME280;40029;58.708;50.190;2023-03-14T09:09:28;100178.84;;;3.17;28.57
54122;BME280;40029;58.708;50.190;2023-03-14T09:12:00;100226.03;;;3.48;28.31
54122;BME280;40029;58.708;50.190;2023-03-14T09:14:32;100133.38;;;3.10;29.05
54122;BME280;40029;58.708;50.190;2023-03-14T09:17:22;100196.78;;;3.60;28.11
54122;BME280;40029;58.708;50.190;2023-03-14T09:19:53;100216.50;;;3.69;26.83
54122;BME280;40029;58.708;50.190;2023-03-14T09:22:43;100159.06;;;3.42;27.07
54122;BME280;40029;58.708;50.190;2023-03-14T09:25:14;100211.34;;;3.73;27.58
54122;BME280;40029;58.708;50.190;2023-03-14T09:28:04;100196.75;;;3.72;27.12
54122;BME280;40029;58.708;50.190;2023-03-14T09:30:35;100152.09;;;3.67;28.02
54122;BME280;40029;58.708;50.190;2023-03-14T09:33:06;100209.63;;;3.69;26.45
54122;BME280;40029;58.708;50.190;2023-03-14T09:35:37;100178.72;;;3.69;27.65
54122;BME280;40029;58.708;50.190;2023-03-14T09:38:08;100129.00;;;3.49;27.40
54122;BME280;40029;58.708;50.190;2023-03-14T09:40:39;100215.47;;;4.19;27.66
54122;BME280;40029;58.708;50.190;2023-03-14T09:43:14;100169.97;;;4.06;25.62
54122;BME280;40029;58.708;50.190;2023-03-14T09:45:47;100215.44;;;4.30;25.06
54122;BME280;40029;58.708;50.190;2023-03-14T09:48:21;100221.47;;;4.25;24.93
54122;BME280;40029;58.708;50.190;2023-03-14T09:50:58;100175.97;;;4.12;23.69
54122;BME280;40029;58.708;50.190;2023-03-14T09:53:47;100227.31;;;4.52;23.25
54122;BME280;40029;58.708;50.190;2023-03-14T09:56:28;100229.03;;;4.53;25.80
54122;BME280;40029;58.708;50.190;2023-03-14T09:59:03;100210.91;;;4.62;24.89
54122;BME280;40029;58.708;50.190;2023-03-14T10:01:39;100192.97;;;4.44;25.30
54122;BME280;40029;58.708;50.190;2023-03-14T10:04:14;100176.72;;;4.30;25.03
54122;BME280;40029;58.708;50.190;2023-03-14T10:06:45;100176.78;;;4.22;25.45
54122;BME280;40029;58.708;50.190;2023-03-14T10:09:36;100217.88;;;4.49;25.63
54122;BME280;40029;58.708;50.190;2023-03-14T10:12:08;100212.75;;;4.43;23.99
54122;BME280;40029;58.708;50.190;2023-03-14T10:14:51;100198.19;;;4.35;22.00
54122;BME280;40029;58.708;50.190;2023-03-14T10:17:44;100205.72;;;4.68;24.38
54122;BME280;40029;58.708;50.190;2023-03-14T10:28:37;100154.91;;;4.76;25.80
54122;BME280;40029;58.708;50.190;2023-03-14T10:31:09;100202.16;;;4.85;25.54
54122;BME280;40029;58.708;50.190;2023-03-14T10:33:40;100173.78;;;4.79;26.11
54122;BME280;40029;58.708;50.190;2023-03-14T10:38:47;100196.00;;;4.96;25.09
54122;BME280;40029;58.708;50.190;2023-03-14T10:41:30;100193.41;;;5.03;22.79
54122;BME280;40029;58.708;50.190;2023-03-14T10:44:02;100157.31;;;4.95;25.00
54122;BME280;40029;58.708;50.190;2023-03-14T10:46:34;100153.19;;;4.74;25.00
54122;BME280;40029;58.708;50.190;2023-03-14T10:49:33;100149.66;;;4.84;23.68
54122;BME280;40029;58.708;50.190;2023-03-14T10:52:27;100194.06;;;5.21;24.12
54122;BME280;40029;58.708;50.190;2023-03-14T10:55:02;100185.38;;;5.32;24.49
54122;BME280;40029;58.708;50.190;2023-03-14T10:57:39;100183.91;;;5.05;22.65
54122;BME280;40029;58.708;50.190;2023-03-14T11:00:21;100139.97;;;5.11;23.58
54122;BME280;40029;58.708;50.190;2023-03-14T11:03:12;100185.31;;;5.38;22.70
54122;BME280;40029;58.708;50.190;2023-03-14T11:06:06;100117.81;;;4.85;23.07
54122;BME280;40029;58.708;50.190;2023-03-14T11:08:56;100181.22;;;5.14;22.83
54122;BME280;40029;58.708;50.190;2023-03-14T11:11:29;100183.69;;;5.26;23.47
54122;BME280;40029;58.708;50.190;2023-03-14T11:14:27;100186.53;;;5.00;22.36
54122;BME280;40029;58.708;50.190;2023-03-14T11:17:17;100151.50;;;4.70;22.86
54122;BME280;40029;58.708;50.190;2023-03-14T11:23:17;100167.94;;;4.57;23.26
54122;BME280;40029;58.708;50.190;2023-03-14T11:28:38;100175.25;;;5.09;21.85
54122;BME280;40029;58.708;50.190;2023-03-14T11:36:39;100210.41;;;5.28;22.98
54122;BME280;40029;58.708;50.190;2023-03-14T11:39:13;100218.34;;;5.07;22.48
54122;BME280;40029;58.708;50.190;2023-03-14T11:42:03;100120.47;;;4.74;24.59
54122;BME280;40029;58.708;50.190;2023-03-14T11:44:37;100192.47;;;5.08;23.04
54122;BME280;40029;58.708;50.190;2023-03-14T11:50:14;100141.88;;;4.89;24.03
54122;BME280;40029;58.708;50.190;2023-03-14T11:53:01;100186.56;;;4.98;23.77
54122;BME280;40029;58.708;50.190;2023-03-14T11:55:35;100153.25;;;4.66;25.01
54122;BME280;40029;58.708;50.190;2023-03-14T11:58:39;100180.34;;;5.16;24.48
54122;BME280;40029;58.708;50.190;2023-03-14T12:01:15;100164.97;;;5.06;25.65
54122;BME280;40029;58.708;50.190;2023-03-14T12:04:30;100166.38;;;4.33;24.28
54122;BME280;40029;58.708;50.190;2023-03-14T12:06:56;100193.78;;;4.52;25.56
54122;BME280;40029;58.708;50.190;2023-03-14T12:09:29;100185.28;;;4.38;25.05
54122;BME280;40029;58.708;50.190;2023-03-14T12:12:03;100142.13;;;4.60;25.64
54122;BME280;40029;58.708;50.190;2023-03-14T12:14:36;100124.75;;;4.79;25.17
54122;BME280;40029;58.708;50.190;2023-03-14T12:20:19;100133.41;;;4.76;24.67
54122;BME280;40029;58.708;50.190;2023-03-14T12:22:54;100139.28;;;4.87;25.97
54122;BME280;40029;58.708;50.190;2023-03-14T12:25:27;100096.69;;;4.39;25.66
54122;BME280;40029;58.708;50.190;2023-03-14T12:28:20;100121.53;;;4.52;24.99
54122;BME280;40029;58.708;50.190;2023-03-14T12:30:52;100080.78;;;3.75;25.95
54122;BME280;40029;58.708;50.190;2023-03-14T12:33:27;100056.81;;;3.61;26.56
54122;BME280;40029;58.708;50.190;2023-03-14T12:56:45;100070.56;;;3.51;23.66
54122;BME280;40029;58.708;50.190;2023-03-14T13:01:59;100054.91;;;3.86;24.03
54122;BME280;40029;58.708;50.190;2023-03-14T13:05:13;100056.72;;;3.75;22.76
54122;BME280;40029;58.708;50.190;2023-03-14T13:10:25;100051.66;;;3.55;23.72
54122;BME280;40029;58.708;50.190;2023-03-14T13:13:02;100026.00;;;3.37;23.98
54122;BME280;40029;58.708;50.190;2023-03-14T13:15:38;99936.13;;;2.80;25.08
54122;BME280;40029;58.708;50.190;2023-03-14T13:18:16;99988.41;;;2.99;24.08
54122;BME280;40029;58.708;50.190;2023-03-14T13:20:57;100018.28;;;3.35;25.22
54122;BME280;40029;58.708;50.190;2023-03-14T13:23:31;100005.53;;;3.06;25.09
54122;BME280;40029;58.708;50.190;2023-03-14T13:26:09;99981.50;;;3.04;25.33
54122;BME280;40029;58.708;50.190;2023-03-14T13:28:42;99984.91;;;3.15;26.21
54122;BME280;40029;58.708;50.190;2023-03-14T13:31:22;100032.81;;;3.47;24.79
54122;BME280;40029;58.708;50.190;2023-03-14T13:34:02;100010.50;;;3.46;26.55
54122;BME280;40029;58.708;50.190;2023-03-14T13:36:36;99980.59;;;3.19;27.53
54122;BME280;40029;58.708;50.190;2023-03-14T13:39:18;99973.03;;;2.81;28.52
54122;BME280;40029;58.708;50.190;2023-03-14T13:41:50;99966.22;;;2.64;29.82
54122;BME280;40029;58.708;50.190;2023-03-14T13:44:31;99993.53;;;3.07;29.38
54122;BME280;40029;58.708;50.190;2023-03-14T13:47:23;99960.91;;;3.01;29.44
54122;BME280;40029;58.708;50.190;2023-03-14T13:49:54;100005.59;;;2.91;30.06
54122;BME280;40029;58.708;50.190;2023-03-14T13:52:30;99941.38;;;2.57;30.77
54122;BME280;40029;58.708;50.190;2023-03-14T13:55:03;99949.88;;;2.76;31.26
54122;BME280;40029;58.708;50.190;2023-03-14T13:58:21;99994.44;;;2.84;30.76
54122;BME280;40029;58.708;50.190;2023-03-14T14:01:18;99951.59;;;2.71;30.95
54122;BME280;40029;58.708;50.190;2023-03-14T14:03:51;99979.09;;;2.52;31.72
54122;BME280;40029;58.708;50.190;2023-03-14T14:06:28;99997.03;;;2.83;32.10
54122;BME280;40029;58.708;50.190;2023-03-14T14:09:21;99962.78;;;2.55;32.51
54122;BME280;40029;58.708;50.190;2023-03-14T14:11:56;99951.75;;;2.08;38.16
54122;BME280;40029;58.708;50.190;2023-03-14T14:14:32;100013.41;;;1.90;42.53
54122;BME280;40029;58.708;50.190;2023-03-14T14:17:09;99967.13;;;1.59;44.84
54122;BME280;40029;58.708;50.190;2023-03-14T14:19:41;99974.00;;;1.77;43.98
54122;BME280;40029;58.708;50.190;2023-03-14T14:22:13;100010.81;;;1.74;42.82
54122;BME280;40029;58.708;50.190;2023-03-14T14:24:45;99951.69;;;1.39;43.61
54122;BME280;40029;58.708;50.190;2023-03-14T14:27:23;100011.69;;;1.83;44.51
54122;BME280;40029;58.708;50.190;2023-03-14T14:30:02;99984.19;;;1.33;47.61
54122;BME280;40029;58.708;50.190;2023-03-14T14:32:39;100017.63;;;1.69;46.36
54122;BME280;40029;58.708;50.190;2023-03-14T14:35:25;100010.81;;;1.62;47.76
54122;BME280;40029;58.708;50.190;2023-03-14T14:37:56;100011.59;;;1.44;48.13
54122;BME280;40029;58.708;50.190;2023-03-14T14:40:29;99975.59;;;1.20;48.52
54122;BME280;40029;58.708;50.190;2023-03-14T14:43:03;99971.31;;;1.20;48.91
54122;BME280;40029;58.708;50.190;2023-03-14T14:45:34;99958.44;;;1.04;49.99
54122;BME280;40029;58.708;50.190;2023-03-14T14:48:09;99909.63;;;0.82;50.22
54122;BME280;40029;58.708;50.190;2023-03-14T14:56:24;99946.47;;;1.07;50.69